createdAt,value
2023-02-22T00:01:35.543Z,4.42
2023-02-22T00:04:04.671Z,4.29
2023-02-22T00:06:31.188Z,4.25
2023-02-22T00:08:58.922Z,4.10
2023-02-22T00:11:25.984Z,3.95
2023-02-22T00:13:52.644Z,3.92
2023-02-22T00:16:23.801Z,3.87
2023-02-22T00:18:50.372Z,3.81
2023-02-22T00:21:18.033Z,3.76
2023-02-22T00:23:46.759Z,3.59
2023-02-22T00:26:19.177Z,3.49
2023-02-22T00:28:51.225Z,3.42
2023-02-22T00:31:19.212Z,3.32
2023-02-22T00:33:46.063Z,3.19
2023-02-22T00:36:13.877Z,3.12
2023-02-22T00:38:41.940Z,3.03
2023-02-22T00:41:09.616Z,2.94
2023-02-22T00:43:36.244Z,2.89
2023-02-22T00:46:02.952Z,2.88
2023-02-22T00:48:29.540Z,2.76
2023-02-22T00:50:56.256Z,2.70
2023-02-22T00:53:25.222Z,2.72
2023-02-22T00:55:52.459Z,2.69
2023-02-22T00:58:19.191Z,2.73
2023-02-22T01:00:46.527Z,2.77
2023-02-22T01:03:18.280Z,2.87
2023-02-22T01:05:45.301Z,2.89
2023-02-22T01:08:13.947Z,2.96
2023-02-22T01:10:40.742Z,3.00
2023-02-22T01:13:09.412Z,3.10
2023-02-22T01:15:39.146Z,3.13
2023-02-22T01:18:06.355Z,3.13
2023-02-22T01:20:33.203Z,3.03
2023-02-22T01:23:03.685Z,3.04
2023-02-22T01:25:31.479Z,3.03
2023-02-22T01:28:00.117Z,3.01
2023-02-22T01:30:30.559Z,2.94
2023-02-22T01:32:57.413Z,2.91
2023-02-22T01:35:28.000Z,3.01
2023-02-22T01:37:54.988Z,2.96
2023-02-22T01:40:36.076Z,2.93
2023-02-22T01:43:14.377Z,2.94
2023-02-22T01:45:44.770Z,2.96
2023-02-22T01:48:29.542Z,2.89
2023-02-22T01:51:01.430Z,2.75
2023-02-22T01:53:42.670Z,2.66
2023-02-22T01:56:10.400Z,2.53
2023-02-22T01:58:41.390Z,2.51
2023-02-22T02:01:09.094Z,2.49
2023-02-22T02:03:38.583Z,2.39
2023-02-22T02:06:08.326Z,2.34
2023-02-22T02:08:42.515Z,2.36
2023-02-22T02:11:09.942Z,2.36
2023-02-22T02:13:37.329Z,2.36
2023-02-22T02:16:04.192Z,2.29
2023-02-22T02:18:32.685Z,2.39
2023-02-22T02:21:37.751Z,2.39
2023-02-22T02:24:28.465Z,2.36
2023-02-22T02:27:27.504Z,2.33
2023-02-22T02:30:12.943Z,2.25
2023-02-22T02:32:52.020Z,2.20
2023-02-22T02:35:34.258Z,2.23
2023-02-22T02:38:41.372Z,2.37
2023-02-22T02:41:18.353Z,2.37
2023-02-22T02:43:58.486Z,2.26
2023-02-22T02:46:51.762Z,2.29
2023-02-22T02:49:25.170Z,2.30
2023-02-22T02:51:54.920Z,2.29
2023-02-22T02:54:23.646Z,2.36
2023-02-22T02:56:50.828Z,2.42
2023-02-22T02:59:32.387Z,2.41
2023-02-22T03:02:13.850Z,2.44
2023-02-22T03:05:03.920Z,2.49
2023-02-22T03:07:53.886Z,2.60
2023-02-22T03:10:44.579Z,2.66
2023-02-22T03:13:32.146Z,2.72
2023-02-22T03:16:30.956Z,2.65
2023-02-22T03:19:10.668Z,2.76
2023-02-22T03:21:48.863Z,2.75
2023-02-22T03:24:25.590Z,2.74
2023-02-22T03:27:04.539Z,2.76
2023-02-22T03:29:35.656Z,2.69
2023-02-22T03:32:06.063Z,2.70
2023-02-22T03:34:46.056Z,2.79
2023-02-22T03:37:22.073Z,2.79
2023-02-22T03:39:52.816Z,2.79
2023-02-22T03:42:24.603Z,2.45
2023-02-22T03:44:53.641Z,2.60
2023-02-22T03:47:28.719Z,2.68
2023-02-22T03:50:07.574Z,2.54
2023-02-22T03:52:36.016Z,2.56
2023-02-22T03:55:04.733Z,2.67
2023-02-22T03:57:38.265Z,2.68
2023-02-22T04:00:08.155Z,2.56
2023-02-22T04:02:35.300Z,2.61
2023-02-22T04:05:01.975Z,2.56
2023-02-22T04:07:28.716Z,2.44
2023-02-22T04:09:55.226Z,2.30
2023-02-22T04:12:21.730Z,2.31
2023-02-22T04:14:48.257Z,2.41
2023-02-22T04:17:14.794Z,2.32
2023-02-22T04:19:41.363Z,2.32
2023-02-22T04:22:07.879Z,2.27
2023-02-22T04:24:34.433Z,2.21
2023-02-22T04:27:00.912Z,1.85
2023-02-22T04:29:27.444Z,1.69
2023-02-22T04:31:53.994Z,1.81
2023-02-22T04:34:20.641Z,1.82
2023-02-22T04:36:47.246Z,1.84
2023-02-22T04:39:13.837Z,1.81
2023-02-22T04:41:40.744Z,1.74
2023-02-22T04:44:07.365Z,1.64
2023-02-22T04:46:33.924Z,1.65
2023-02-22T04:49:00.499Z,1.83
2023-02-22T04:51:27.004Z,1.67
2023-02-22T04:53:53.536Z,1.65
2023-02-22T04:56:20.678Z,1.62
2023-02-22T04:58:47.913Z,1.65
2023-02-22T05:01:16.695Z,1.62
2023-02-22T05:03:43.917Z,1.74
2023-02-22T05:06:12.479Z,1.71
2023-02-22T05:08:38.978Z,1.73
2023-02-22T05:11:05.807Z,1.64
2023-02-22T05:13:32.317Z,1.75
2023-02-22T05:15:58.870Z,1.66
2023-02-22T05:18:25.915Z,1.71
2023-02-22T05:20:52.679Z,1.70
2023-02-22T05:23:19.193Z,1.59
2023-02-22T05:25:46.071Z,1.66
2023-02-22T05:28:14.977Z,1.75
2023-02-22T05:30:41.936Z,1.80
2023-02-22T05:33:09.936Z,1.74
2023-02-22T05:35:37.249Z,1.83
2023-02-22T05:38:04.968Z,1.78
2023-02-22T05:40:31.927Z,1.75
2023-02-22T05:42:59.420Z,1.88
2023-02-22T05:45:27.571Z,1.91
2023-02-22T05:47:55.099Z,1.94
2023-02-22T05:50:22.427Z,1.69
2023-02-22T05:52:49.280Z,1.79
2023-02-22T05:55:18.502Z,1.80
2023-02-22T05:57:45.423Z,1.79
2023-02-22T06:00:17.342Z,1.68
2023-02-22T06:02:43.870Z,1.99
2023-02-22T06:05:10.461Z,2.16
2023-02-22T06:07:36.969Z,2.07
2023-02-22T06:10:03.702Z,2.07
2023-02-22T06:12:30.200Z,2.06
2023-02-22T06:14:56.783Z,2.39
2023-02-22T06:17:23.333Z,2.50
2023-02-22T06:19:49.841Z,2.63
2023-02-22T06:22:18.769Z,2.56
2023-02-22T06:24:45.403Z,2.66
2023-02-22T06:27:11.880Z,2.76
2023-02-22T06:29:38.478Z,2.72
2023-02-22T06:32:05.306Z,2.74
2023-02-22T06:34:32.080Z,2.77
2023-02-22T06:36:59.973Z,2.87
2023-02-22T06:39:26.661Z,3.02
2023-02-22T06:41:55.299Z,2.91
2023-02-22T06:44:21.910Z,2.92
2023-02-22T06:46:51.252Z,3.26
2023-02-22T06:49:19.485Z,3.25
2023-02-22T06:51:46.699Z,3.39
2023-02-22T06:54:13.597Z,3.25
2023-02-22T06:56:40.107Z,3.60
2023-02-22T06:59:06.590Z,3.58
2023-02-22T07:01:33.088Z,3.77
2023-02-22T07:03:59.635Z,4.07
2023-02-22T07:06:26.159Z,4.03
2023-02-22T07:08:52.696Z,4.29
2023-02-22T07:11:19.396Z,4.43
2023-02-22T07:13:45.964Z,4.61
2023-02-22T07:16:12.453Z,4.78
2023-02-22T07:18:39.460Z,4.93
2023-02-22T07:21:06.595Z,4.88
2023-02-22T07:23:33.331Z,5.10
2023-02-22T07:26:01.588Z,5.28
2023-02-22T07:28:28.523Z,5.46
2023-02-22T07:30:55.067Z,5.55
2023-02-22T07:33:21.513Z,5.76
2023-02-22T07:35:50.024Z,5.95
2023-02-22T07:38:19.385Z,6.10
2023-02-22T07:40:46.410Z,6.26
2023-02-22T07:43:19.657Z,6.29
2023-02-22T07:45:47.033Z,6.10
2023-02-22T07:48:17.385Z,6.03
2023-02-22T07:50:44.565Z,6.24
2023-02-22T07:53:20.262Z,6.49
2023-02-22T07:55:50.987Z,6.29
2023-02-22T07:58:22.109Z,5.66
2023-02-22T08:00:48.846Z,6.10
2023-02-22T08:03:17.534Z,6.31
2023-02-22T08:05:49.852Z,6.71
2023-02-22T08:08:19.757Z,7.09
2023-02-22T08:10:46.531Z,7.17
2023-02-22T08:13:13.506Z,7.07
2023-02-22T08:15:41.553Z,7.49
2023-02-22T08:18:13.758Z,7.81
2023-02-22T08:20:42.698Z,7.58
2023-02-22T08:23:10.556Z,7.86
2023-02-22T08:25:37.620Z,8.21
2023-02-22T08:28:07.278Z,8.42
2023-02-22T08:30:39.780Z,7.65
2023-02-22T08:33:06.951Z,7.43
2023-02-22T08:35:34.129Z,7.22
2023-02-22T08:38:05.736Z,6.92
2023-02-22T08:40:35.561Z,7.19
2023-02-22T08:43:02.237Z,7.30
2023-02-22T08:45:29.214Z,7.78
2023-02-22T08:47:56.009Z,8.29
2023-02-22T08:50:25.991Z,9.18
2023-02-22T08:52:55.133Z,9.92
2023-02-22T08:55:23.564Z,10.47
2023-02-22T08:57:50.777Z,10.45
2023-02-22T09:00:19.220Z,11.67
2023-02-22T09:02:45.717Z,12.16
2023-02-22T09:05:12.258Z,11.90
2023-02-22T09:07:42.676Z,11.87
2023-02-22T09:10:15.514Z,10.66
2023-02-22T09:12:42.694Z,10.96
2023-02-22T09:15:10.034Z,11.02
2023-02-22T09:17:37.476Z,10.92
2023-02-22T09:20:09.283Z,12.70
2023-02-22T09:22:35.826Z,12.76
2023-02-22T09:25:11.370Z,13.62
2023-02-22T09:27:43.729Z,12.79
2023-02-22T09:30:18.179Z,10.75
2023-02-22T09:32:44.826Z,8.46
2023-02-22T09:35:11.405Z,9.04
2023-02-22T09:37:37.942Z,10.86
2023-02-22T09:40:09.909Z,11.90
2023-02-22T09:42:45.639Z,12.31
2023-02-22T09:45:23.080Z,8.22
2023-02-22T09:47:56.992Z,8.30
2023-02-22T09:50:35.723Z,10.27
2023-02-22T09:53:05.965Z,8.50
2023-02-22T09:55:42.199Z,7.36
2023-02-22T09:58:19.635Z,7.90
2023-02-22T10:00:51.641Z,8.77
2023-02-22T10:03:22.796Z,9.80
2023-02-22T10:05:56.998Z,9.16
2023-02-22T10:08:31.168Z,8.78
2023-02-22T10:11:16.134Z,9.06
2023-02-22T10:14:01.727Z,10.55
2023-02-22T10:16:37.055Z,11.38
2023-02-22T10:19:22.526Z,11.39
2023-02-22T10:22:20.326Z,11.43
2023-02-22T10:24:59.934Z,11.32
2023-02-22T10:27:37.734Z,11.33
2023-02-22T10:30:24.073Z,11.33
2023-02-22T10:33:13.425Z,10.78
2023-02-22T10:35:41.360Z,10.88
2023-02-22T10:38:17.024Z,11.17
2023-02-22T10:40:51.422Z,11.23
2023-02-22T10:43:18.017Z,11.08
2023-02-22T10:45:44.662Z,11.79
2023-02-22T10:48:18.537Z,11.75
2023-02-22T10:50:47.280Z,12.30
2023-02-22T10:53:17.785Z,13.14
2023-02-22T10:56:22.607Z,13.39
2023-02-22T10:58:54.869Z,12.51
2023-02-22T11:01:26.646Z,12.35
2023-02-22T11:04:03.366Z,11.32
2023-02-22T11:06:31.493Z,10.27
2023-02-22T11:09:24.481Z,11.12
2023-02-22T11:12:08.438Z,11.32
2023-02-22T11:14:35.100Z,11.29
2023-02-22T11:17:07.650Z,11.04
2023-02-22T11:19:36.401Z,10.91
2023-02-22T11:22:05.922Z,10.67
2023-02-22T11:24:47.314Z,11.05
2023-02-22T11:27:33.325Z,11.67
2023-02-22T11:30:11.912Z,11.94
2023-02-22T11:32:47.372Z,12.25
2023-02-22T11:35:37.119Z,11.99
2023-02-22T11:38:34.494Z,11.68
2023-02-22T11:41:15.368Z,11.86
2023-02-22T11:43:43.386Z,12.63
2023-02-22T11:46:16.994Z,13.18
2023-02-22T11:48:53.849Z,12.83
2023-02-22T11:51:36.521Z,11.47
2023-02-22T11:54:25.574Z,10.48
2023-02-22T11:56:58.826Z,9.72
2023-02-22T11:59:38.488Z,9.42
2023-02-22T12:02:30.699Z,9.47
2023-02-22T12:05:26.531Z,9.08
2023-02-22T12:08:13.769Z,9.06
2023-02-22T12:10:58.931Z,9.20
2023-02-22T12:13:49.315Z,7.85
2023-02-22T12:16:46.147Z,8.86
2023-02-22T12:19:33.779Z,8.85
2023-02-22T12:22:08.006Z,9.20
2023-02-22T12:24:51.598Z,8.48
2023-02-22T12:27:33.878Z,9.74
2023-02-22T12:30:07.218Z,9.40
2023-02-22T12:32:52.805Z,9.86
2023-02-22T12:35:22.083Z,10.34
2023-02-22T12:37:53.294Z,10.08
2023-02-22T12:41:00.359Z,9.72
2023-02-22T12:43:36.726Z,10.25
2023-02-22T12:46:10.470Z,10.11
2023-02-22T12:48:49.204Z,9.89
2023-02-22T12:51:28.607Z,9.17
2023-02-22T12:54:05.845Z,8.53
2023-02-22T12:56:41.314Z,8.57
2023-02-22T12:59:19.938Z,8.86
2023-02-22T13:01:52.303Z,9.93
2023-02-22T13:04:21.251Z,10.12
2023-02-22T13:07:10.280Z,10.49
2023-02-22T13:09:59.655Z,10.14
2023-02-22T13:12:52.531Z,10.13
2023-02-22T13:15:40.740Z,9.84
2023-02-22T13:18:19.145Z,9.27
2023-02-22T13:20:53.792Z,9.39
2023-02-22T13:23:34.208Z,9.03
2023-02-22T13:26:25.155Z,9.59
2023-02-22T13:29:04.625Z,9.95
2023-02-22T13:31:53.803Z,10.07
2023-02-22T13:34:40.253Z,9.94
2023-02-22T13:37:41.433Z,9.24
2023-02-22T13:40:20.320Z,9.21
2023-02-22T13:43:16.626Z,8.88
2023-02-22T13:46:00.140Z,8.92
2023-02-22T13:48:54.191Z,9.12
2023-02-22T13:51:50.640Z,9.38
2023-02-22T13:54:24.451Z,9.28
2023-02-22T13:56:52.907Z,9.03
2023-02-22T13:59:34.416Z,9.21
2023-02-22T14:02:04.960Z,9.27
2023-02-22T14:04:31.590Z,9.30
2023-02-22T14:07:03.259Z,9.09
2023-02-22T14:09:52.838Z,8.67
2023-02-22T14:12:31.324Z,8.93
2023-02-22T14:15:30.134Z,8.48
2023-02-22T14:17:57.108Z,8.19
2023-02-22T14:20:38.304Z,8.26
2023-02-22T14:23:31.499Z,8.33
2023-02-22T14:26:11.783Z,8.07
2023-02-22T14:29:09.527Z,7.86
2023-02-22T14:31:44.811Z,7.99
2023-02-22T14:34:38.866Z,7.91
2023-02-22T14:37:18.224Z,7.95
2023-02-22T14:40:21.450Z,7.87
2023-02-22T14:42:51.008Z,8.01
2023-02-22T14:45:29.776Z,7.91
2023-02-22T14:48:27.635Z,7.74
2023-02-22T14:51:19.096Z,7.68
2023-02-22T14:53:51.559Z,7.76
2023-02-22T14:56:23.834Z,7.73
2023-02-22T14:59:15.208Z,7.93
2023-02-22T15:01:55.381Z,7.97
2023-02-22T15:04:29.448Z,7.68
2023-02-22T15:06:58.160Z,7.70
2023-02-22T15:09:30.050Z,7.72
2023-02-22T15:12:03.460Z,7.86
2023-02-22T15:14:33.186Z,7.84
2023-02-22T15:17:03.217Z,7.76
2023-02-22T15:19:32.602Z,7.61
2023-02-22T15:22:02.037Z,7.75
2023-02-22T15:24:33.231Z,7.58
2023-02-22T15:27:06.176Z,7.43
2023-02-22T15:29:38.475Z,7.39
2023-02-22T15:32:33.857Z,7.30
2023-02-22T15:35:27.074Z,7.36
2023-02-22T15:38:21.714Z,7.30
2023-02-22T15:41:00.117Z,7.20
2023-02-22T15:43:28.564Z,7.18
2023-02-22T15:45:56.436Z,7.12
2023-02-22T15:48:23.522Z,7.03
2023-02-22T15:51:20.725Z,6.94
2023-02-22T15:53:49.503Z,6.99
2023-02-22T15:56:26.040Z,6.94
2023-02-22T15:59:00.591Z,6.78
2023-02-22T16:01:27.338Z,6.80
2023-02-22T16:03:58.978Z,6.79
2023-02-22T16:06:37.798Z,6.76
2023-02-22T16:09:10.529Z,6.72
2023-02-22T16:11:43.388Z,6.70
2023-02-22T16:14:31.284Z,6.68
2023-02-22T16:17:35.511Z,6.62
2023-02-22T16:20:22.304Z,6.50
2023-02-22T16:22:49.808Z,6.49
2023-02-22T16:25:19.389Z,6.47
2023-02-22T16:27:52.702Z,6.45
2023-02-22T16:30:24.852Z,6.40
2023-02-22T16:32:54.207Z,6.36
2023-02-22T16:35:21.094Z,6.35
2023-02-22T16:37:50.291Z,6.35
2023-02-22T16:40:26.008Z,6.30
2023-02-22T16:42:52.639Z,6.25
2023-02-22T16:45:21.678Z,6.22
2023-02-22T16:47:51.674Z,6.21
2023-02-22T16:50:18.346Z,6.19
2023-02-22T16:52:44.960Z,6.15
2023-02-22T16:55:17.184Z,6.16
2023-02-22T16:57:44.316Z,6.14
2023-02-22T17:00:21.864Z,6.11
2023-02-22T17:02:48.597Z,6.11
2023-02-22T17:05:16.498Z,6.10
2023-02-22T17:07:43.341Z,5.98
2023-02-22T17:10:18.877Z,6.10
2023-02-22T17:12:50.804Z,6.04
2023-02-22T17:15:24.169Z,6.13
2023-02-22T17:17:52.067Z,6.08
2023-02-22T17:20:30.123Z,6.03
2023-02-22T17:23:02.028Z,5.99
2023-02-22T17:25:32.793Z,5.98
2023-02-22T17:27:59.262Z,5.99
2023-02-22T17:30:25.952Z,5.91
2023-02-22T17:32:52.826Z,5.87
2023-02-22T17:35:23.321Z,5.86
2023-02-22T17:37:50.464Z,5.91
2023-02-22T17:40:17.716Z,5.92
2023-02-22T17:42:45.424Z,5.96
2023-02-22T17:45:14.070Z,5.93
2023-02-22T17:47:44.144Z,5.95
2023-02-22T17:50:12.083Z,6.04
2023-02-22T17:52:38.861Z,6.00
2023-02-22T17:55:06.537Z,5.93
2023-02-22T17:57:33.582Z,5.69
2023-02-22T18:00:02.629Z,5.71
2023-02-22T18:02:29.224Z,5.62
2023-02-22T18:04:55.804Z,5.52
2023-02-22T18:07:22.574Z,5.45
2023-02-22T18:09:49.200Z,5.40
2023-02-22T18:12:15.737Z,5.37
2023-02-22T18:14:42.353Z,5.34
2023-02-22T18:17:08.892Z,5.29
2023-02-22T18:19:35.431Z,5.21
2023-02-22T18:22:03.093Z,5.10
2023-02-22T18:24:34.370Z,4.96
2023-02-22T18:27:01.507Z,4.92
2023-02-22T18:29:29.077Z,4.88
2023-02-22T18:31:56.447Z,4.82
2023-02-22T18:34:26.188Z,4.71
2023-02-22T18:36:52.729Z,4.63
2023-02-22T18:39:19.363Z,4.54
2023-02-22T18:41:48.691Z,4.52
2023-02-22T18:44:16.273Z,4.50
2023-02-22T18:46:43.666Z,4.36
2023-02-22T18:49:14.206Z,4.31
2023-02-22T18:51:43.585Z,4.30
2023-02-22T18:54:12.436Z,4.18
2023-02-22T18:56:40.359Z,4.20
2023-02-22T18:59:12.170Z,4.03
2023-02-22T19:01:40.926Z,4.07
2023-02-22T19:04:09.898Z,4.00
2023-02-22T19:06:37.205Z,3.89
2023-02-22T19:09:04.880Z,3.83
2023-02-22T19:11:31.380Z,3.77
2023-02-22T19:13:58.457Z,3.69
2023-02-22T19:16:27.173Z,3.68
2023-02-22T19:18:57.517Z,3.59
2023-02-22T19:21:26.163Z,3.56
2023-02-22T19:23:52.746Z,3.48
2023-02-22T19:26:25.941Z,3.40
2023-02-22T19:28:54.538Z,3.31
2023-02-22T19:31:31.589Z,3.27
2023-02-22T19:34:03.975Z,3.20
2023-02-22T19:36:31.106Z,3.12
2023-02-22T19:39:01.785Z,3.02
2023-02-22T19:41:29.561Z,3.02
2023-02-22T19:43:56.195Z,2.97
2023-02-22T19:46:25.078Z,2.91
2023-02-22T19:48:52.982Z,2.86
2023-02-22T19:51:21.290Z,2.80
2023-02-22T19:53:47.824Z,2.70
2023-02-22T19:56:17.001Z,2.65
2023-02-22T19:58:46.186Z,2.62
2023-02-22T20:01:13.654Z,2.54
2023-02-22T20:03:42.424Z,2.55
2023-02-22T20:06:12.478Z,2.47
2023-02-22T20:08:42.248Z,2.44
2023-02-22T20:11:10.754Z,2.36
2023-02-22T20:13:38.929Z,2.39
2023-02-22T20:16:06.262Z,2.34
2023-02-22T20:18:33.066Z,2.27
2023-02-22T20:21:00.869Z,2.23
2023-02-22T20:23:27.492Z,2.16
2023-02-22T20:25:55.918Z,2.14
2023-02-22T20:28:24.437Z,2.12
2023-02-22T20:30:51.927Z,2.07
2023-02-22T20:33:19.604Z,2.05
2023-02-22T20:35:47.032Z,2.05
2023-02-22T20:38:14.591Z,1.99
2023-02-22T20:40:42.719Z,1.97
2023-02-22T20:43:10.237Z,1.95
2023-02-22T20:45:38.045Z,1.93
2023-02-22T20:48:05.731Z,1.90
2023-02-22T20:50:33.217Z,1.86
2023-02-22T20:52:59.750Z,1.84
2023-02-22T20:55:26.252Z,1.85
2023-02-22T20:57:52.760Z,1.79
2023-02-22T21:00:19.295Z,1.78
2023-02-22T21:02:46.850Z,1.77
2023-02-22T21:05:13.840Z,1.75
2023-02-22T21:07:40.549Z,1.72
2023-02-22T21:10:07.190Z,1.69
2023-02-22T21:12:34.971Z,1.65
2023-02-22T21:15:01.530Z,1.60
2023-02-22T21:17:31.017Z,1.56
2023-02-22T21:19:58.446Z,1.50
2023-02-22T21:22:25.403Z,1.52
2023-02-22T21:24:52.216Z,1.47
2023-02-22T21:27:18.927Z,1.46
2023-02-22T21:29:45.550Z,1.45
2023-02-22T21:32:13.830Z,1.45
2023-02-22T21:34:40.603Z,1.45
2023-02-22T21:37:08.395Z,1.40
2023-02-22T21:39:35.490Z,1.39
2023-02-22T21:42:02.748Z,1.41
2023-02-22T21:44:29.475Z,1.44
2023-02-22T21:46:56.187Z,1.45
2023-02-22T21:49:23.296Z,1.46
2023-02-22T21:51:51.768Z,1.47
2023-02-22T21:54:18.825Z,1.46
2023-02-22T21:56:45.846Z,1.50
2023-02-22T21:59:21.014Z,1.49
2023-02-22T22:01:56.132Z,1.47
2023-02-22T22:04:27.650Z,1.51
2023-02-22T22:06:56.874Z,1.50
2023-02-22T22:09:24.776Z,1.48
2023-02-22T22:11:54.266Z,1.47
2023-02-22T22:14:23.290Z,1.48
2023-02-22T22:16:58.640Z,1.50
2023-02-22T22:19:26.762Z,1.49
2023-02-22T22:21:54.144Z,1.50
2023-02-22T22:24:22.747Z,1.50
2023-02-22T22:26:51.281Z,1.52
2023-02-22T22:29:18.724Z,1.55
2023-02-22T22:31:45.868Z,1.56
2023-02-22T22:34:12.705Z,1.54
2023-02-22T22:36:39.394Z,1.56
2023-02-22T22:39:14.794Z,1.46
2023-02-22T22:41:42.674Z,1.49
2023-02-22T22:44:09.935Z,1.44
2023-02-22T22:46:41.112Z,1.35
2023-02-22T22:49:13.408Z,1.25
2023-02-22T22:51:41.359Z,1.19
2023-02-22T22:54:09.534Z,1.24
2023-02-22T22:56:38.081Z,1.16
2023-02-22T22:59:07.866Z,1.10
2023-02-22T23:01:39.396Z,1.15
2023-02-22T23:04:12.233Z,1.08
2023-02-22T23:06:47.064Z,0.97
2023-02-22T23:09:27.483Z,0.94
2023-02-22T23:11:56.610Z,0.82
2023-02-22T23:14:26.974Z,0.85
2023-02-22T23:17:00.069Z,0.80
2023-02-22T23:19:26.655Z,0.75
2023-02-22T23:21:53.158Z,0.68
2023-02-22T23:24:21.169Z,0.73
2023-02-22T23:26:48.790Z,0.65
2023-02-22T23:29:20.490Z,0.64
2023-02-22T23:31:48.714Z,0.54
2023-02-22T23:34:21.348Z,0.58
2023-02-22T23:36:48.602Z,0.45
2023-02-22T23:39:17.742Z,0.50
2023-02-22T23:41:44.318Z,0.51
2023-02-22T23:44:17.668Z,0.45
2023-02-22T23:46:48.375Z,0.40
2023-02-22T23:49:20.433Z,0.37
2023-02-22T23:51:47.909Z,0.36
2023-02-22T23:54:16.813Z,0.32
2023-02-22T23:56:56.886Z,0.30
2023-02-22T23:59:25.445Z,0.29
